createdAt,value
2023-04-22T00:00:31.036Z,400.0000
2023-04-22T00:01:39.090Z,400.0000
2023-04-22T00:02:47.128Z,400.0000
2023-04-22T00:03:55.207Z,400.0000
2023-04-22T00:05:03.353Z,400.0000
2023-04-22T00:06:11.530Z,400.0000
2023-04-22T00:07:19.420Z,400.0000
2023-04-22T00:08:27.473Z,400.0000
2023-04-22T00:09:35.634Z,400.0000
2023-04-22T00:10:43.558Z,400.0000
2023-04-22T00:11:51.685Z,400.0000
2023-04-22T00:12:59.766Z,400.0000
2023-04-22T00:14:07.782Z,400.0000
2023-04-22T00:15:16.042Z,400.0000
2023-04-22T00:16:23.916Z,400.0000
2023-04-22T00:17:32.025Z,400.0000
2023-04-22T00:18:39.899Z,400.0000
2023-04-22T00:19:47.949Z,400.0000
2023-04-22T00:20:56.179Z,400.0000
2023-04-22T00:22:04.229Z,400.0000
2023-04-22T00:23:12.347Z,400.0000
2023-04-22T00:24:20.343Z,400.0000
2023-04-22T00:25:28.427Z,400.0000
2023-04-22T00:26:36.554Z,400.0000
2023-04-22T00:27:44.422Z,400.0000
2023-04-22T00:28:52.659Z,400.0000
2023-04-22T00:30:00.708Z,400.0000
2023-04-22T00:31:08.804Z,400.0000
2023-04-22T00:32:16.704Z,400.0000
2023-04-22T00:33:24.747Z,400.0000
2023-04-22T00:34:32.806Z,400.0000
2023-04-22T00:35:41.640Z,400.0000
2023-04-22T00:36:49.030Z,400.0000
2023-04-22T00:37:57.218Z,400.0000
2023-04-22T00:39:05.212Z,400.0000
2023-04-22T00:40:13.320Z,400.0000
2023-04-22T00:41:21.329Z,400.0000
2023-04-22T00:42:29.438Z,400.0000
2023-04-22T00:43:37.479Z,400.0000
2023-04-22T00:44:45.547Z,400.0000
2023-04-22T00:45:53.741Z,400.0000
2023-04-22T00:47:01.595Z,400.0000
2023-04-22T00:48:09.699Z,400.0000
2023-04-22T00:49:17.677Z,400.0000
2023-04-22T00:50:26.117Z,400.0000
2023-04-22T00:51:33.989Z,400.0000
2023-04-22T00:52:42.014Z,400.0000
2023-04-22T00:53:50.044Z,400.0000
2023-04-22T00:54:58.139Z,400.0000
2023-04-22T00:56:06.198Z,400.0000
2023-04-22T00:57:14.355Z,400.0000
2023-04-22T00:58:22.291Z,400.0000
2023-04-22T00:59:30.398Z,400.0000
2023-04-22T01:00:38.460Z,400.0000
2023-04-22T01:01:46.442Z,400.0000
2023-04-22T01:02:54.597Z,400.0000
2023-04-22T01:04:02.627Z,400.0000
2023-04-22T01:05:10.954Z,400.0000
2023-04-22T01:06:18.746Z,400.0000
2023-04-22T01:07:26.957Z,400.0000
2023-04-22T01:08:34.930Z,400.0000
2023-04-22T01:09:43.050Z,400.0000
2023-04-22T01:10:51.052Z,400.0000
2023-04-22T01:11:59.112Z,400.0000
2023-04-22T01:13:07.213Z,400.0000
2023-04-22T01:14:15.234Z,400.0000
2023-04-22T01:15:23.305Z,400.0000
2023-04-22T01:16:31.360Z,400.0000
2023-04-22T01:17:39.389Z,400.0000
2023-04-22T01:18:47.388Z,400.0000
2023-04-22T01:19:55.593Z,400.0000
2023-04-22T01:21:03.823Z,400.0000
2023-04-22T01:22:11.947Z,400.0000
2023-04-22T01:23:19.765Z,400.0000
2023-04-22T01:24:27.930Z,400.0000
2023-04-22T01:25:35.896Z,400.0000
2023-04-22T01:26:43.951Z,400.0000
2023-04-22T01:27:52.196Z,400.0000
2023-04-22T01:29:00.121Z,400.0000
2023-04-22T01:30:08.221Z,400.0000
2023-04-22T01:31:16.094Z,400.0000
2023-04-22T01:32:24.203Z,400.0000
2023-04-22T01:33:32.222Z,400.0000
2023-04-22T01:34:40.372Z,400.0000
2023-04-22T01:35:48.604Z,400.0000
2023-04-22T01:36:56.690Z,400.0000
2023-04-22T01:38:04.603Z,400.0000
2023-04-22T01:39:12.720Z,400.0000
2023-04-22T01:40:20.762Z,400.0000
2023-04-22T01:41:28.815Z,400.0000
2023-04-22T01:42:36.873Z,400.0000
2023-04-22T01:43:44.958Z,400.0000
2023-04-22T01:44:53.169Z,400.0000
2023-04-22T01:46:00.944Z,400.0000
2023-04-22T01:47:09.042Z,400.0000
2023-04-22T01:48:17.083Z,400.0000
2023-04-22T01:49:25.255Z,400.0000
2023-04-22T01:50:33.336Z,400.0000
2023-04-22T01:51:41.456Z,400.0000
2023-04-22T01:52:49.618Z,400.0000
2023-04-22T01:53:57.491Z,400.0000
2023-04-22T01:55:05.586Z,400.0000
2023-04-22T01:56:13.641Z,400.0000
2023-04-22T01:57:21.750Z,400.0000
2023-04-22T01:58:29.840Z,400.0000
2023-04-22T01:59:38.194Z,400.0000
2023-04-22T02:00:45.792Z,400.0000
2023-04-22T02:01:53.879Z,400.0000
2023-04-22T02:03:02.282Z,400.0000
2023-04-22T02:04:10.181Z,400.0000
2023-04-22T02:05:18.232Z,400.0000
2023-04-22T02:06:26.329Z,400.0000
2023-04-22T02:07:34.374Z,400.0000
2023-04-22T02:08:42.636Z,400.0000
2023-04-22T02:09:50.977Z,400.0000
2023-04-22T02:10:58.619Z,400.0000
2023-04-22T02:12:06.654Z,400.0000
2023-04-22T02:13:14.722Z,400.0000
2023-04-22T02:14:22.792Z,400.0000
2023-04-22T02:15:30.716Z,400.0000
2023-04-22T02:16:38.798Z,400.0000
2023-04-22T02:17:46.818Z,400.0000
2023-04-22T02:18:55.143Z,400.0000
2023-04-22T02:20:03.166Z,400.0000
2023-04-22T02:21:11.388Z,400.0000
2023-04-22T02:22:19.272Z,400.0000
2023-04-22T02:23:27.294Z,400.0000
2023-04-22T02:24:35.549Z,400.0000
2023-04-22T02:25:43.412Z,400.0000
2023-04-22T02:26:51.490Z,400.0000
2023-04-22T02:27:59.535Z,400.0000
2023-04-22T02:29:07.609Z,400.0000
2023-04-22T02:30:15.648Z,400.0000
2023-04-22T02:31:23.614Z,400.0000
2023-04-22T02:32:31.792Z,400.0000
2023-04-22T02:33:39.907Z,400.0000
2023-04-22T02:34:47.954Z,400.0000
2023-04-22T02:35:56.124Z,400.0000
2023-04-22T02:37:04.084Z,400.0000
2023-04-22T02:38:12.261Z,400.0000
2023-04-22T02:39:20.239Z,400.0000
2023-04-22T02:40:28.399Z,400.0000
2023-04-22T02:41:36.450Z,400.0000
2023-04-22T02:42:44.403Z,400.0000
2023-04-22T02:43:52.497Z,400.0000
2023-04-22T02:45:00.439Z,400.0000
2023-04-22T02:46:08.518Z,400.0000
2023-04-22T02:47:16.587Z,400.0000
2023-04-22T02:48:24.777Z,400.0000
2023-04-22T02:49:32.854Z,400.0000
2023-04-22T02:50:40.949Z,400.0000
2023-04-22T02:51:49.022Z,400.0000
2023-04-22T02:52:57.125Z,400.0000
2023-04-22T02:54:05.191Z,400.0000
2023-04-22T02:55:13.248Z,400.0000
2023-04-22T02:56:21.267Z,400.0000
2023-04-22T02:57:29.518Z,400.0000
2023-04-22T02:58:37.509Z,400.0000
2023-04-22T02:59:45.345Z,400.0000
2023-04-22T03:00:53.440Z,400.0000
2023-04-22T03:02:01.714Z,400.0000
2023-04-22T03:03:09.819Z,400.0000
2023-04-22T03:04:17.843Z,400.0000
2023-04-22T03:05:25.838Z,400.0000
2023-04-22T03:06:33.886Z,400.0000
2023-04-22T03:07:41.961Z,400.0000
2023-04-22T03:08:50.070Z,400.0000
2023-04-22T03:09:58.292Z,400.0000
2023-04-22T03:11:06.125Z,400.0000
2023-04-22T03:12:14.222Z,400.0000
2023-04-22T03:13:22.273Z,400.0000
2023-04-22T03:14:30.252Z,400.0000
2023-04-22T03:15:38.294Z,400.0000
2023-04-22T03:16:46.378Z,400.0000
2023-04-22T03:17:54.565Z,400.0000
2023-04-22T03:19:02.654Z,400.0000
2023-04-22T03:20:10.766Z,400.0000
2023-04-22T03:21:18.777Z,400.0000
2023-04-22T03:22:26.829Z,400.0000
2023-04-22T03:23:34.887Z,400.0000
2023-04-22T03:24:42.949Z,400.0000
2023-04-22T03:25:51.112Z,400.0000
2023-04-22T03:26:59.125Z,400.0000
2023-04-22T03:28:07.148Z,400.0000
2023-04-22T03:29:15.089Z,400.0000
2023-04-22T03:30:23.185Z,400.0000
2023-04-22T03:31:31.304Z,400.0000
2023-04-22T03:32:39.447Z,400.0000
2023-04-22T03:33:47.457Z,400.0000
2023-04-22T03:34:55.576Z,400.0000
2023-04-22T03:36:03.642Z,400.0000
2023-04-22T03:37:11.781Z,400.0000
2023-04-22T03:38:20.115Z,400.0000
2023-04-22T03:39:27.842Z,400.0000
2023-04-22T03:40:35.899Z,400.0000
2023-04-22T03:41:44.038Z,400.0000
2023-04-22T03:42:52.034Z,400.0000
2023-04-22T03:44:01.775Z,400.0000
2023-04-22T03:45:12.870Z,400.0000
2023-04-22T03:46:21.210Z,400.0000
2023-04-22T03:47:29.326Z,400.0000
2023-04-22T03:48:37.226Z,400.0000
2023-04-22T03:49:45.320Z,400.0000
2023-04-22T03:50:53.365Z,400.0000
2023-04-22T03:52:01.441Z,400.0000
2023-04-22T03:53:09.641Z,400.0000
2023-04-22T03:54:17.551Z,400.0000
2023-04-22T03:55:25.639Z,400.0000
2023-04-22T03:56:33.707Z,400.0000
2023-04-22T03:57:41.651Z,400.0000
2023-04-22T03:58:49.732Z,400.0000
2023-04-22T03:59:57.762Z,400.0000
2023-04-22T04:01:05.942Z,400.0000
2023-04-22T04:02:14.125Z,400.0000
2023-04-22T04:03:22.234Z,400.0000
2023-04-22T04:04:30.646Z,400.0000
2023-04-22T04:05:38.339Z,400.0000
2023-04-22T04:06:46.241Z,400.0000
2023-04-22T04:07:54.308Z,400.0000
2023-04-22T04:09:02.468Z,400.0000
2023-04-22T04:10:10.552Z,400.0000
2023-04-22T04:11:18.526Z,400.0000
2023-04-22T04:12:26.517Z,400.0000
2023-04-22T04:13:34.573Z,400.0000
2023-04-22T04:14:42.680Z,400.0000
2023-04-22T04:15:50.924Z,400.0000
2023-04-22T04:16:58.905Z,400.0000
2023-04-22T04:18:07.072Z,400.0000
2023-04-22T04:19:14.997Z,400.0000
2023-04-22T04:20:23.145Z,400.0000
2023-04-22T04:21:31.141Z,400.0000
2023-04-22T04:22:39.242Z,400.0000
2023-04-22T04:23:47.238Z,400.0000
2023-04-22T04:24:55.505Z,400.0000
2023-04-22T04:26:03.423Z,400.0000
2023-04-22T04:27:11.349Z,400.0000
2023-04-22T04:28:19.442Z,400.0000
2023-04-22T04:29:27.511Z,400.0000
2023-04-22T04:30:35.768Z,400.0000
2023-04-22T04:31:44.018Z,400.0000
2023-04-22T04:32:51.917Z,400.0000
2023-04-22T04:33:59.872Z,400.0000
2023-04-22T04:35:08.102Z,400.0000
2023-04-22T04:36:16.071Z,400.0000
2023-04-22T04:37:24.046Z,400.0000
2023-04-22T04:38:32.118Z,400.0000
2023-04-22T04:39:40.523Z,400.0000
2023-04-22T04:40:48.189Z,400.0000
2023-04-22T04:41:56.275Z,400.0000
2023-04-22T04:43:04.340Z,400.0000
2023-04-22T04:44:13.125Z,400.0000
2023-04-22T04:45:20.599Z,400.0000
2023-04-22T04:46:28.748Z,400.0000
2023-04-22T04:47:36.804Z,400.0000
2023-04-22T04:48:44.746Z,400.0000
2023-04-22T04:49:52.849Z,400.0000
2023-04-22T04:51:01.006Z,400.0000
2023-04-22T04:52:09.005Z,400.0000
2023-04-22T04:53:17.020Z,400.0000
2023-04-22T04:54:25.045Z,400.0000
2023-04-22T04:55:33.046Z,400.0000
2023-04-22T04:56:41.130Z,400.0000
2023-04-22T04:57:49.232Z,400.0000
2023-04-22T04:58:57.615Z,400.0000
2023-04-22T05:00:05.514Z,400.0000
2023-04-22T05:01:13.562Z,400.0000
2023-04-22T05:02:21.775Z,400.0000
2023-04-22T05:03:29.816Z,400.0000
2023-04-22T05:04:37.855Z,400.0000
2023-04-22T05:05:45.718Z,400.0000
2023-04-22T05:06:53.815Z,400.0000
2023-04-22T05:08:02.072Z,400.0000
2023-04-22T05:09:09.979Z,400.0000
2023-04-22T05:10:17.925Z,400.0000
2023-04-22T05:11:26.001Z,400.0000
2023-04-22T05:12:34.047Z,400.0000
2023-04-22T05:13:42.262Z,400.0000
2023-04-22T05:14:50.370Z,400.0000
2023-04-22T05:15:58.425Z,400.0000
2023-04-22T05:17:06.391Z,400.0000
2023-04-22T05:18:14.470Z,400.0000
2023-04-22T05:19:22.596Z,400.0000
2023-04-22T05:20:31.612Z,400.0000
2023-04-22T05:21:43.550Z,400.0000
2023-04-22T05:22:51.595Z,400.0000
2023-04-22T05:23:59.592Z,400.0000
2023-04-22T05:25:07.648Z,400.0000
2023-04-22T05:26:15.788Z,400.0000
2023-04-22T05:27:23.923Z,400.0000
2023-04-22T05:28:31.956Z,400.0000
2023-04-22T05:29:40.221Z,400.0000
2023-04-22T05:30:48.100Z,400.0000
2023-04-22T05:31:56.551Z,400.0000
2023-04-22T05:33:04.301Z,400.0000
2023-04-22T05:34:12.506Z,400.0000
2023-04-22T05:35:20.341Z,400.0000
2023-04-22T05:36:31.174Z,400.0000
2023-04-22T05:37:41.246Z,400.0000
2023-04-22T05:38:49.284Z,400.0000
2023-04-22T05:39:57.367Z,400.0000
2023-04-22T05:41:05.675Z,400.0000
2023-04-22T05:42:13.640Z,400.0000
2023-04-22T05:43:21.583Z,400.0000
2023-04-22T05:44:29.683Z,400.0000
2023-04-22T05:45:37.816Z,400.0000
2023-04-22T05:46:45.846Z,400.0000
2023-04-22T05:47:54.105Z,400.0000
2023-04-22T05:49:01.920Z,400.0000
2023-04-22T05:50:10.040Z,400.0000
2023-04-22T05:51:18.171Z,400.0000
2023-04-22T05:52:26.038Z,400.0000
2023-04-22T05:53:34.183Z,400.0000
2023-04-22T05:54:42.179Z,400.0000
2023-04-22T05:55:50.339Z,400.0000
2023-04-22T05:56:58.399Z,400.0000
2023-04-22T05:58:06.461Z,400.0000
2023-04-22T05:59:14.663Z,400.0000
2023-04-22T06:00:22.576Z,400.0000
2023-04-22T06:01:30.638Z,400.0000
2023-04-22T06:02:38.835Z,400.0000
2023-04-22T06:03:46.913Z,400.0000
2023-04-22T06:04:55.048Z,400.0000
2023-04-22T06:06:02.936Z,400.0000
2023-04-22T06:07:10.906Z,400.0000
2023-04-22T06:08:18.965Z,400.0000
2023-04-22T06:09:27.147Z,400.0000
2023-04-22T06:10:35.231Z,400.0000
2023-04-22T06:11:43.304Z,400.0000
2023-04-22T06:12:51.417Z,400.0000
2023-04-22T06:13:59.363Z,400.0000
2023-04-22T06:15:07.642Z,400.0000
2023-04-22T06:16:15.651Z,400.0000
2023-04-22T06:17:23.685Z,400.0000
2023-04-22T06:18:31.720Z,400.0000
2023-04-22T06:19:40.084Z,400.0000
2023-04-22T06:20:47.788Z,400.0000
2023-04-22T06:21:55.797Z,400.0000
2023-04-22T06:23:03.870Z,400.0000
2023-04-22T06:24:11.996Z,400.0000
2023-04-22T06:25:20.067Z,400.0000
2023-04-22T06:26:28.198Z,400.0000
2023-04-22T06:27:36.194Z,400.0000
2023-04-22T06:28:44.262Z,400.0000
2023-04-22T06:29:52.482Z,400.0000
2023-04-22T06:31:00.407Z,400.0000
2023-04-22T06:32:08.558Z,400.0000
2023-04-22T06:33:16.650Z,400.0000
2023-04-22T06:34:24.658Z,400.0000
2023-04-22T06:35:32.575Z,400.0000
2023-04-22T06:36:40.657Z,400.0000
2023-04-22T06:37:48.738Z,400.0000
2023-04-22T06:38:56.917Z,400.0000
2023-04-22T06:40:04.905Z,400.0000
2023-04-22T06:41:13.007Z,400.0000
2023-04-22T06:42:21.032Z,400.0000
2023-04-22T06:43:29.152Z,400.0000
2023-04-22T06:44:37.157Z,400.0000
2023-04-22T06:45:45.291Z,400.0000
2023-04-22T06:46:54.758Z,400.0000
2023-04-22T06:48:06.226Z,400.0000
2023-04-22T06:49:14.273Z,400.0000
2023-04-22T06:50:22.352Z,400.0000
2023-04-22T06:51:30.341Z,400.0000
2023-04-22T06:52:38.423Z,400.0000
2023-04-22T06:53:46.487Z,400.0000
2023-04-22T06:54:54.599Z,400.0000
2023-04-22T06:56:02.672Z,400.0000
2023-04-22T06:57:10.705Z,400.0000
2023-04-22T06:58:18.809Z,400.0000
2023-04-22T06:59:26.887Z,400.0000
2023-04-22T07:00:34.963Z,400.0000
2023-04-22T07:01:43.095Z,400.0000
2023-04-22T07:02:51.191Z,400.0000
2023-04-22T07:03:59.129Z,400.0000
2023-04-22T07:05:07.146Z,400.0000
2023-04-22T07:06:15.204Z,400.0000
2023-04-22T07:07:23.256Z,400.0000
2023-04-22T07:08:31.463Z,400.0000
2023-04-22T07:09:39.708Z,400.0000
2023-04-22T07:10:47.558Z,400.0000
2023-04-22T07:11:55.571Z,400.0000
2023-04-22T07:13:03.768Z,400.0000
2023-04-22T07:14:11.688Z,400.0000
2023-04-22T07:15:19.895Z,400.0000
2023-04-22T07:16:27.972Z,400.0000
2023-04-22T07:17:36.010Z,400.0000
2023-04-22T07:18:43.897Z,400.0000
2023-04-22T07:19:51.971Z,400.0000
2023-04-22T07:21:00.035Z,400.0000
2023-04-22T07:22:08.127Z,400.0000
2023-04-22T07:23:16.183Z,400.0000
2023-04-22T07:24:24.383Z,400.0000
2023-04-22T07:25:32.322Z,400.0000
2023-04-22T07:26:40.528Z,400.0000
2023-04-22T07:27:48.514Z,400.0000
2023-04-22T07:28:56.541Z,400.0000
2023-04-22T07:30:04.586Z,400.0000
2023-04-22T07:31:12.683Z,400.0000
2023-04-22T07:32:20.855Z,400.0000
2023-04-22T07:33:28.747Z,400.0000
2023-04-22T07:34:36.791Z,400.0000
2023-04-22T07:35:44.829Z,400.0000
2023-04-22T07:36:52.870Z,400.0000
2023-04-22T07:38:01.035Z,400.0000
2023-04-22T07:39:09.251Z,400.0000
2023-04-22T07:40:17.165Z,400.0000
2023-04-22T07:41:25.245Z,400.0000
2023-04-22T07:42:33.415Z,400.0000
2023-04-22T07:43:41.355Z,400.0000
2023-04-22T07:44:49.455Z,400.0000
2023-04-22T07:45:57.538Z,400.0000
2023-04-22T07:47:05.690Z,400.0000
2023-04-22T07:48:13.622Z,400.0000
2023-04-22T07:49:21.632Z,400.0000
2023-04-22T07:50:29.731Z,400.0000
2023-04-22T07:51:37.827Z,400.0000
2023-04-22T07:52:45.940Z,400.0000
2023-04-22T07:53:53.912Z,400.0000
2023-04-22T07:55:02.162Z,400.0000
2023-04-22T07:56:10.105Z,400.0000
2023-04-22T07:57:18.151Z,400.0000
2023-04-22T07:58:26.234Z,400.0000
2023-04-22T07:59:34.300Z,400.0000
2023-04-22T08:00:42.494Z,400.0000
2023-04-22T08:01:50.651Z,400.0000
2023-04-22T08:02:58.577Z,400.0000
2023-04-22T08:04:06.656Z,400.0000
2023-04-22T08:05:14.634Z,400.0000
2023-04-22T08:06:23.022Z,400.0000
2023-04-22T08:07:33.394Z,400.0000
2023-04-22T08:08:43.734Z,400.0000
2023-04-22T08:09:51.939Z,400.0000
2023-04-22T08:10:59.932Z,400.0000
2023-04-22T08:12:07.906Z,400.0000
2023-04-22T08:13:18.136Z,400.0000
2023-04-22T08:14:28.877Z,400.0000
2023-04-22T08:15:36.940Z,400.0000
2023-04-22T08:16:44.935Z,400.0000
2023-04-22T08:17:53.039Z,400.0000
2023-04-22T08:19:01.280Z,400.0000
2023-04-22T08:20:09.263Z,400.0000
2023-04-22T08:21:17.295Z,400.0000
2023-04-22T08:22:25.344Z,400.0000
2023-04-22T08:23:33.488Z,400.0000
2023-04-22T08:24:41.444Z,400.0000
2023-04-22T08:25:49.583Z,400.0000
2023-04-22T08:26:57.617Z,400.0000
2023-04-22T08:28:05.707Z,400.0000
2023-04-22T08:29:13.743Z,400.0000
2023-04-22T08:30:21.741Z,400.0000
2023-04-22T08:31:29.772Z,400.0000
2023-04-22T08:32:37.877Z,400.0000
2023-04-22T08:33:46.083Z,400.0000
2023-04-22T08:34:57.720Z,400.0000
2023-04-22T08:36:06.984Z,400.0000
2023-04-22T08:37:15.065Z,400.0000
2023-04-22T08:38:23.056Z,400.0000
2023-04-22T08:39:31.298Z,400.0000
2023-04-22T08:40:39.349Z,400.0000
2023-04-22T08:41:47.276Z,400.0000
2023-04-22T08:42:55.425Z,400.0000
2023-04-22T08:44:03.334Z,400.0000
2023-04-22T08:45:11.436Z,400.0000
2023-04-22T08:46:19.471Z,400.0000
2023-04-22T08:47:27.625Z,400.0000
2023-04-22T08:48:35.734Z,400.0000
2023-04-22T08:49:43.641Z,400.0000
2023-04-22T08:50:51.898Z,400.0000
2023-04-22T08:51:59.971Z,400.0000
2023-04-22T08:53:07.912Z,400.0000
2023-04-22T08:54:16.062Z,400.0000
2023-04-22T08:55:24.040Z,400.0000
2023-04-22T08:56:32.125Z,400.0000
2023-04-22T08:57:40.196Z,400.0000
2023-04-22T08:58:48.231Z,400.0000
2023-04-22T08:59:56.242Z,400.0000
2023-04-22T09:01:04.318Z,400.0000
2023-04-22T09:02:12.543Z,400.0000
2023-04-22T09:03:20.574Z,400.0000
2023-04-22T09:04:28.604Z,400.0000
2023-04-22T09:05:36.687Z,400.0000
2023-04-22T09:06:44.664Z,400.0000
2023-04-22T09:07:52.872Z,400.0000
2023-04-22T09:09:00.826Z,400.0000
2023-04-22T09:10:08.862Z,400.7143
2023-04-22T09:11:16.911Z,402.4286
2023-04-22T09:12:24.994Z,402.4286
2023-04-22T09:13:33.014Z,402.7143
2023-04-22T09:14:41.031Z,401.3571
2023-04-22T09:15:49.075Z,400.0000
2023-04-22T09:16:57.388Z,400.0714
2023-04-22T09:18:05.295Z,400.5714
2023-04-22T09:19:13.429Z,401.1429
2023-04-22T09:20:21.488Z,407.8571
2023-04-22T09:21:29.494Z,408.0714
2023-04-22T09:22:37.523Z,405.7857
2023-04-22T09:23:45.720Z,409.8571
2023-04-22T09:24:53.723Z,414.0000
2023-04-22T09:26:01.744Z,425.5714
2023-04-22T09:27:09.768Z,425.8571
2023-04-22T09:28:17.919Z,422.9286
2023-04-22T09:29:25.837Z,429.5714
2023-04-22T09:30:34.082Z,427.7143
2023-04-22T09:31:41.994Z,427.3571
2023-04-22T09:32:50.146Z,423.6429
2023-04-22T09:33:58.146Z,433.9286
2023-04-22T09:35:06.311Z,429.2857
2023-04-22T09:36:14.291Z,422.4286
2023-04-22T09:37:22.337Z,429.8571
2023-04-22T09:38:30.432Z,431.2143
2023-04-22T09:39:38.711Z,426.2143
2023-04-22T09:40:46.488Z,427.0000
2023-04-22T09:41:54.659Z,430.0000
2023-04-22T09:43:02.601Z,446.3571
2023-04-22T09:44:10.711Z,453.8571
2023-04-22T09:45:18.940Z,463.1429
2023-04-22T09:46:26.742Z,469.9286
2023-04-22T09:47:34.916Z,463.7143
2023-04-22T09:48:43.031Z,449.3571
2023-04-22T09:49:51.083Z,449.0000
2023-04-22T09:50:59.072Z,456.8571
2023-04-22T09:52:07.174Z,447.6429
2023-04-22T09:53:15.216Z,460.2143
2023-04-22T09:54:23.242Z,470.6429
2023-04-22T09:55:31.477Z,476.5714
2023-04-22T09:56:39.394Z,478.0714
2023-04-22T09:57:47.432Z,480.5000
2023-04-22T09:58:55.446Z,485.0714
2023-04-22T10:00:03.472Z,495.3571
2023-04-22T10:01:11.594Z,494.0000
2023-04-22T10:02:19.698Z,486.1429
2023-04-22T10:03:27.853Z,494.2143
2023-04-22T10:04:36.073Z,508.7143
2023-04-22T10:05:43.854Z,503.7857
2023-04-22T10:06:51.931Z,506.0714
2023-04-22T10:08:00.183Z,514.7857
2023-04-22T10:09:09.411Z,517.4286
2023-04-22T10:10:16.102Z,510.7857
2023-04-22T10:11:24.540Z,503.5000
2023-04-22T10:12:35.532Z,488.5000
2023-04-22T10:13:45.112Z,469.6667
2023-04-22T10:14:53.372Z,467.0000
2023-04-22T10:16:01.336Z,471.8571
2023-04-22T10:17:09.386Z,480.3571
2023-04-22T10:18:17.381Z,474.2143
2023-04-22T10:19:25.609Z,468.4286
2023-04-22T10:20:33.620Z,476.3571
2023-04-22T10:21:41.675Z,488.5000
2023-04-22T10:22:49.723Z,511.2143
2023-04-22T10:23:57.773Z,558.3571
2023-04-22T10:25:06.027Z,628.1429
2023-04-22T10:26:13.845Z,700.2857
2023-04-22T10:27:21.878Z,759.1429
2023-04-22T10:28:29.998Z,817.9286
2023-04-22T10:29:38.316Z,899.3571
2023-04-22T10:30:46.185Z,944.6429
2023-04-22T10:31:54.260Z,1002.7857
2023-04-22T10:33:02.328Z,1039.5000
2023-04-22T10:34:10.313Z,1042.2858
2023-04-22T10:35:18.496Z,1054.8572
2023-04-22T10:36:26.486Z,1116.6428
2023-04-22T10:37:34.514Z,1148.1428
2023-04-22T10:38:42.556Z,1175.5714
2023-04-22T10:39:50.740Z,1170.7858
2023-04-22T10:40:58.726Z,1166.8572
2023-04-22T10:42:06.727Z,1193.7142
2023-04-22T10:43:14.778Z,1249.0714
2023-04-22T10:44:23.006Z,1278.0000
2023-04-22T10:45:30.951Z,1310.9286
2023-04-22T10:46:39.099Z,1330.5714
2023-04-22T10:47:47.256Z,1358.7858
2023-04-22T10:48:55.225Z,1365.4286
2023-04-22T10:50:03.291Z,1367.0000
2023-04-22T10:51:11.506Z,1375.6428
2023-04-22T10:52:19.531Z,1382.3572
2023-04-22T10:53:27.568Z,1377.8572
2023-04-22T10:54:35.606Z,1376.3572
2023-04-22T10:55:43.780Z,1351.8572
2023-04-22T10:56:57.584Z,1304.7858
2023-04-22T10:58:04.648Z,1255.8000
2023-04-22T10:59:12.738Z,1247.8572
2023-04-22T11:00:20.861Z,1277.5000
2023-04-22T11:01:28.917Z,1271.1428
2023-04-22T11:02:36.951Z,1266.3572
2023-04-22T11:03:45.038Z,1273.5000
2023-04-22T11:04:53.083Z,1244.0714
2023-04-22T11:06:01.081Z,1216.0714
2023-04-22T11:07:09.251Z,1189.6428
2023-04-22T11:08:17.201Z,1181.3572
2023-04-22T11:09:25.161Z,1182.1428
2023-04-22T11:10:33.284Z,1159.8572
2023-04-22T11:11:41.328Z,1139.3572
2023-04-22T11:12:49.435Z,1122.4286
2023-04-22T11:13:57.482Z,1084.3572
2023-04-22T11:15:05.615Z,1069.0000
2023-04-22T11:16:13.659Z,1065.0714
2023-04-22T11:17:21.704Z,1067.5000
2023-04-22T11:18:29.758Z,1040.3572
2023-04-22T11:19:38.212Z,997.0000
2023-04-22T11:20:45.932Z,937.1429
2023-04-22T11:21:54.088Z,889.7143
2023-04-22T11:23:02.093Z,871.0000
2023-04-22T11:24:10.033Z,828.2857
2023-04-22T11:25:18.077Z,799.3571
2023-04-22T11:26:26.182Z,786.2143
2023-04-22T11:27:34.234Z,759.5714
2023-04-22T11:28:42.344Z,721.0000
2023-04-22T11:29:50.391Z,701.2143
2023-04-22T11:30:58.469Z,664.6429
2023-04-22T11:32:06.426Z,662.7143
2023-04-22T11:33:14.515Z,692.2857
2023-04-22T11:34:22.688Z,707.7857
2023-04-22T11:35:30.809Z,730.2143
2023-04-22T11:36:38.820Z,757.4286
2023-04-22T11:37:46.863Z,784.5714
2023-04-22T11:38:54.811Z,813.7143
2023-04-22T11:40:21.373Z,850.5000
2023-04-22T11:41:15.897Z,862.2000
2023-04-22T11:42:24.079Z,829.5714
2023-04-22T11:43:31.908Z,793.0000
2023-04-22T11:44:39.975Z,789.7143
2023-04-22T11:45:48.094Z,796.2143
2023-04-22T11:46:56.317Z,802.2143
2023-04-22T11:48:04.220Z,785.5714
2023-04-22T11:49:12.373Z,758.6429
2023-04-22T11:50:20.241Z,741.0000
2023-04-22T11:51:28.347Z,713.6429
2023-04-22T11:52:36.372Z,726.2857
2023-04-22T11:53:44.454Z,768.1429
2023-04-22T11:54:52.495Z,802.7857
2023-04-22T11:56:00.713Z,873.6429
2023-04-22T11:57:08.784Z,874.2143
2023-04-22T11:58:16.703Z,869.7143
2023-04-22T11:59:24.923Z,893.0714
2023-04-22T12:00:32.945Z,962.9286
2023-04-22T12:01:41.118Z,1020.0714
2023-04-22T12:02:49.132Z,1057.0714
2023-04-22T12:03:57.208Z,1053.1428
2023-04-22T12:05:05.127Z,1044.1428
2023-04-22T12:06:13.097Z,990.5000
2023-04-22T12:07:21.186Z,956.5714
2023-04-22T12:08:29.238Z,895.7857
2023-04-22T12:09:37.484Z,831.9286
2023-04-22T12:10:45.384Z,789.7143
2023-04-22T12:11:53.434Z,759.8571
2023-04-22T12:13:01.578Z,727.1429
2023-04-22T12:14:09.569Z,699.1429
2023-04-22T12:15:18.751Z,668.2857
2023-04-22T12:16:25.749Z,650.0000
2023-04-22T12:17:33.727Z,639.3571
2023-04-22T12:18:41.799Z,632.8571
2023-04-22T12:19:49.916Z,612.1429
2023-04-22T12:20:58.001Z,594.5714
2023-04-22T12:22:06.246Z,569.9286
2023-04-22T12:23:14.012Z,556.0000
2023-04-22T12:24:22.124Z,556.4286
2023-04-22T12:25:30.145Z,548.1429
2023-04-22T12:26:38.202Z,542.9286
2023-04-22T12:27:46.257Z,539.5000
2023-04-22T12:28:54.318Z,538.5000
2023-04-22T12:30:02.466Z,531.9286
2023-04-22T12:31:10.558Z,526.9286
2023-04-22T12:32:18.550Z,515.3571
2023-04-22T12:33:26.554Z,494.0714
2023-04-22T12:34:34.653Z,483.7143
2023-04-22T12:35:42.763Z,487.5714
2023-04-22T12:36:50.753Z,499.4286
2023-04-22T12:37:58.830Z,502.1429
2023-04-22T12:39:06.861Z,507.6429
2023-04-22T12:40:14.960Z,509.7143
2023-04-22T12:41:23.281Z,520.3571
2023-04-22T12:42:31.138Z,546.0714
2023-04-22T12:43:39.235Z,549.5714
2023-04-22T12:44:47.188Z,551.0714
2023-04-22T12:45:55.329Z,556.5714
2023-04-22T12:47:03.310Z,550.3571
2023-04-22T12:48:11.717Z,555.3571
2023-04-22T12:49:19.477Z,572.6429
2023-04-22T12:50:27.621Z,579.7857
2023-04-22T12:51:35.955Z,572.1429
2023-04-22T12:52:43.651Z,569.0000
2023-04-22T12:53:51.691Z,581.0000
2023-04-22T12:54:59.772Z,604.3571
2023-04-22T12:56:07.896Z,625.2857
2023-04-22T12:57:15.866Z,633.5000
2023-04-22T12:58:23.912Z,646.1429
2023-04-22T12:59:32.109Z,655.4286
2023-04-22T13:00:40.119Z,641.5000
2023-04-22T13:01:48.267Z,628.3571
2023-04-22T13:02:56.307Z,612.5000
2023-04-22T13:04:04.543Z,582.2857
2023-04-22T13:05:12.442Z,561.1429
2023-04-22T13:06:20.472Z,548.7857
2023-04-22T13:07:28.382Z,547.8571
2023-04-22T13:08:36.459Z,558.1429
2023-04-22T13:09:44.515Z,558.4286
2023-04-22T13:10:52.685Z,555.5714
2023-04-22T13:12:00.794Z,562.2143
2023-04-22T13:14:21.694Z,604.7333
2023-04-22T13:15:29.798Z,606.2143
2023-04-22T13:16:37.962Z,649.8571
2023-04-22T13:17:47.624Z,675.7857
2023-04-22T13:18:58.817Z,683.0667
2023-04-22T13:20:06.798Z,677.2857